sensor_id;sensor_type;location;lat;lon;timestamp;P1;durP1;ratioP1;P2;durP2;ratioP2
1613;SDS011;800;48.824;9.346;2023-12-20T00:00:35;1.80;;;1.50;;
1613;SDS011;800;48.824;9.346;2023-12-20T00:03:02;1.53;;;1.43;;
1613;SDS011;800;48.824;9.346;2023-12-20T00:05:28;1.87;;;1.77;;
1613;SDS011;800;48.824;9.346;2023-12-20T00:07:53;1.97;;;1.40;;
1613;SDS011;800;48.824;9.346;2023-12-20T00:10:19;1.43;;;1.30;;
1613;SDS011;800;48.824;9.346;2023-12-20T00:12:45;1.93;;;1.77;;
1613;SDS011;800;48.824;9.346;2023-12-20T00:15:10;1.30;;;1.20;;
1613;SDS011;800;48.824;9.346;2023-12-20T00:17:36;1.70;;;1.60;;
1613;SDS011;800;48.824;9.346;2023-12-20T00:20:02;1.60;;;1.50;;
1613;SDS011;800;48.824;9.346;2023-12-20T00:22:27;1.53;;;1.43;;
1613;SDS011;800;48.824;9.346;2023-12-20T00:24:53;2.00;;;1.80;;
1613;SDS011;800;48.824;9.346;2023-12-20T00:27:18;2.07;;;1.60;;
1613;SDS011;800;48.824;9.346;2023-12-20T00:29:44;2.03;;;1.47;;
1613;SDS011;800;48.824;9.346;2023-12-20T00:32:12;1.50;;;1.40;;
1613;SDS011;800;48.824;9.346;2023-12-20T00:37:28;1.60;;;1.50;;
1613;SDS011;800;48.824;9.346;2023-12-20T00:39:53;1.40;;;1.30;;
1613;SDS011;800;48.824;9.346;2023-12-20T00:42:19;1.50;;;1.40;;
1613;SDS011;800;48.824;9.346;2023-12-20T00:44:44;1.47;;;1.37;;
1613;SDS011;800;48.824;9.346;2023-12-20T00:47:10;1.47;;;1.37;;
1613;SDS011;800;48.824;9.346;2023-12-20T00:49:36;1.40;;;1.30;;
1613;SDS011;800;48.824;9.346;2023-12-20T00:52:01;2.17;;;1.30;;
1613;SDS011;800;48.824;9.346;2023-12-20T00:54:27;1.20;;;1.10;;
1613;SDS011;800;48.824;9.346;2023-12-20T00:56:53;2.53;;;1.70;;
1613;SDS011;800;48.824;9.346;2023-12-20T00:59:19;1.27;;;1.17;;
1613;SDS011;800;48.824;9.346;2023-12-20T01:01:44;1.30;;;1.20;;
1613;SDS011;800;48.824;9.346;2023-12-20T01:04:11;2.73;;;1.10;;
1613;SDS011;800;48.824;9.346;2023-12-20T01:06:37;1.63;;;1.33;;
1613;SDS011;800;48.824;9.346;2023-12-20T01:09:02;1.17;;;1.07;;
1613;SDS011;800;48.824;9.346;2023-12-20T01:11:28;2.00;;;1.37;;
1613;SDS011;800;48.824;9.346;2023-12-20T01:13:53;1.93;;;1.83;;
1613;SDS011;800;48.824;9.346;2023-12-20T01:16:19;1.43;;;1.10;;
1613;SDS011;800;48.824;9.346;2023-12-20T01:18:44;1.20;;;1.10;;
1613;SDS011;800;48.824;9.346;2023-12-20T01:21:10;1.50;;;1.13;;
1613;SDS011;800;48.824;9.346;2023-12-20T01:23:35;1.37;;;1.23;;
1613;SDS011;800;48.824;9.346;2023-12-20T01:26:01;1.37;;;1.27;;
1613;SDS011;800;48.824;9.346;2023-12-20T01:28:27;2.57;;;1.23;;
1613;SDS011;800;48.824;9.346;2023-12-20T01:30:53;1.50;;;1.40;;
1613;SDS011;800;48.824;9.346;2023-12-20T01:33:18;1.50;;;1.40;;
1613;SDS011;800;48.824;9.346;2023-12-20T01:35:44;1.50;;;1.40;;
1613;SDS011;800;48.824;9.346;2023-12-20T01:38:09;1.47;;;1.37;;
1613;SDS011;800;48.824;9.346;2023-12-20T01:40:35;1.80;;;1.40;;
1613;SDS011;800;48.824;9.346;2023-12-20T01:43:10;1.43;;;1.33;;
1613;SDS011;800;48.824;9.346;2023-12-20T01:45:37;1.57;;;1.47;;
1613;SDS011;800;48.824;9.346;2023-12-20T01:48:03;2.97;;;1.53;;
1613;SDS011;800;48.824;9.346;2023-12-20T01:50:30;1.70;;;1.60;;
1613;SDS011;800;48.824;9.346;2023-12-20T01:52:57;1.50;;;1.40;;
1613;SDS011;800;48.824;9.346;2023-12-20T01:55:25;2.03;;;1.67;;
1613;SDS011;800;48.824;9.346;2023-12-20T01:57:52;1.60;;;1.50;;
1613;SDS011;800;48.824;9.346;2023-12-20T02:00:18;1.80;;;1.70;;
1613;SDS011;800;48.824;9.346;2023-12-20T02:02:48;2.20;;;1.60;;
1613;SDS011;800;48.824;9.346;2023-12-20T02:05:15;1.87;;;1.77;;
1613;SDS011;800;48.824;9.346;2023-12-20T02:07:41;2.00;;;1.80;;
1613;SDS011;800;48.824;9.346;2023-12-20T02:10:07;1.80;;;1.60;;
1613;SDS011;800;48.824;9.346;2023-12-20T02:12:33;2.03;;;1.40;;
1613;SDS011;800;48.824;9.346;2023-12-20T02:14:58;2.10;;;1.73;;
1613;SDS011;800;48.824;9.346;2023-12-20T02:17:24;1.20;;;1.10;;
1613;SDS011;800;48.824;9.346;2023-12-20T02:19:50;2.97;;;1.70;;
1613;SDS011;800;48.824;9.346;2023-12-20T02:22:16;1.70;;;1.60;;
1613;SDS011;800;48.824;9.346;2023-12-20T02:24:41;1.50;;;1.40;;
1613;SDS011;800;48.824;9.346;2023-12-20T02:27:07;2.10;;;1.83;;
1613;SDS011;800;48.824;9.346;2023-12-20T02:29:34;1.90;;;1.80;;
1613;SDS011;800;48.824;9.346;2023-12-20T02:32:00;1.63;;;1.53;;
1613;SDS011;800;48.824;9.346;2023-12-20T02:34:25;1.50;;;1.40;;
1613;SDS011;800;48.824;9.346;2023-12-20T02:36:51;2.17;;;1.87;;
1613;SDS011;800;48.824;9.346;2023-12-20T02:39:17;1.90;;;1.80;;
1613;SDS011;800;48.824;9.346;2023-12-20T02:41:43;1.53;;;1.43;;
1613;SDS011;800;48.824;9.346;2023-12-20T02:44:09;2.20;;;1.60;;
1613;SDS011;800;48.824;9.346;2023-12-20T02:46:34;2.10;;;1.93;;
1613;SDS011;800;48.824;9.346;2023-12-20T02:49:00;2.47;;;2.00;;
1613;SDS011;800;48.824;9.346;2023-12-20T02:51:25;2.00;;;1.80;;
1613;SDS011;800;48.824;9.346;2023-12-20T02:53:51;1.70;;;1.60;;
1613;SDS011;800;48.824;9.346;2023-12-20T02:56:16;2.20;;;2.00;;
1613;SDS011;800;48.824;9.346;2023-12-20T02:58:42;2.00;;;1.90;;
1613;SDS011;800;48.824;9.346;2023-12-20T03:01:08;2.30;;;2.13;;
1613;SDS011;800;48.824;9.346;2023-12-20T03:03:33;2.20;;;2.00;;
1613;SDS011;800;48.824;9.346;2023-12-20T03:05:59;1.90;;;1.70;;
1613;SDS011;800;48.824;9.346;2023-12-20T03:08:25;2.93;;;2.67;;
1613;SDS011;800;48.824;9.346;2023-12-20T03:10:50;2.37;;;2.17;;
1613;SDS011;800;48.824;9.346;2023-12-20T03:13:16;2.30;;;2.10;;
1613;SDS011;800;48.824;9.346;2023-12-20T03:15:42;2.60;;;2.40;;
1613;SDS011;800;48.824;9.346;2023-12-20T03:18:07;2.90;;;2.60;;
1613;SDS011;800;48.824;9.346;2023-12-20T03:20:33;2.33;;;2.13;;
1613;SDS011;800;48.824;9.346;2023-12-20T03:22:59;2.53;;;2.33;;
1613;SDS011;800;48.824;9.346;2023-12-20T03:25:25;3.60;;;3.33;;
1613;SDS011;800;48.824;9.346;2023-12-20T03:27:51;2.43;;;2.23;;
1613;SDS011;800;48.824;9.346;2023-12-20T03:30:17;2.80;;;2.50;;
1613;SDS011;800;48.824;9.346;2023-12-20T03:32:42;2.50;;;2.30;;
1613;SDS011;800;48.824;9.346;2023-12-20T03:35:08;3.17;;;2.37;;
1613;SDS011;800;48.824;9.346;2023-12-20T03:37:34;2.17;;;1.90;;
1613;SDS011;800;48.824;9.346;2023-12-20T03:39:59;2.47;;;2.13;;
1613;SDS011;800;48.824;9.346;2023-12-20T03:42:25;2.47;;;2.27;;
1613;SDS011;800;48.824;9.346;2023-12-20T03:44:51;2.00;;;1.87;;
1613;SDS011;800;48.824;9.346;2023-12-20T03:47:17;1.80;;;1.70;;
1613;SDS011;800;48.824;9.346;2023-12-20T03:49:42;1.53;;;1.40;;
1613;SDS011;800;48.824;9.346;2023-12-20T03:52:08;1.93;;;1.73;;
1613;SDS011;800;48.824;9.346;2023-12-20T03:54:34;1.60;;;1.10;;
1613;SDS011;800;48.824;9.346;2023-12-20T03:57:00;2.50;;;1.13;;
1613;SDS011;800;48.824;9.346;2023-12-20T03:59:26;1.50;;;1.40;;
1613;SDS011;800;48.824;9.346;2023-12-20T04:01:52;1.10;;;0.90;;
1613;SDS011;800;48.824;9.346;2023-12-20T04:04:17;1.03;;;0.70;;
1613;SDS011;800;48.824;9.346;2023-12-20T04:06:43;0.90;;;0.80;;
1613;SDS011;800;48.824;9.346;2023-12-20T04:09:09;0.70;;;0.70;;
1613;SDS011;800;48.824;9.346;2023-12-20T04:11:35;0.80;;;0.80;;
1613;SDS011;800;48.824;9.346;2023-12-20T04:14:01;0.60;;;0.60;;
1613;SDS011;800;48.824;9.346;2023-12-20T04:16:27;0.60;;;0.60;;
1613;SDS011;800;48.824;9.346;2023-12-20T04:18:52;0.53;;;0.53;;
1613;SDS011;800;48.824;9.346;2023-12-20T04:21:18;0.70;;;0.50;;
1613;SDS011;800;48.824;9.346;2023-12-20T04:23:43;0.60;;;0.60;;
1613;SDS011;800;48.824;9.346;2023-12-20T04:26:09;0.60;;;0.60;;
1613;SDS011;800;48.824;9.346;2023-12-20T04:28:35;3.50;;;0.50;;
1613;SDS011;800;48.824;9.346;2023-12-20T04:31:00;0.60;;;0.60;;
1613;SDS011;800;48.824;9.346;2023-12-20T04:33:26;0.53;;;0.53;;
1613;SDS011;800;48.824;9.346;2023-12-20T04:35:51;0.60;;;0.60;;
1613;SDS011;800;48.824;9.346;2023-12-20T04:38:17;1.37;;;0.50;;
1613;SDS011;800;48.824;9.346;2023-12-20T04:40:43;0.60;;;0.60;;
1613;SDS011;800;48.824;9.346;2023-12-20T04:43:08;0.63;;;0.63;;
1613;SDS011;800;48.824;9.346;2023-12-20T04:45:34;0.77;;;0.77;;
1613;SDS011;800;48.824;9.346;2023-12-20T04:48:01;0.80;;;0.80;;
1613;SDS011;800;48.824;9.346;2023-12-20T04:50:27;1.43;;;0.60;;
1613;SDS011;800;48.824;9.346;2023-12-20T04:52:53;0.70;;;0.70;;
1613;SDS011;800;48.824;9.346;2023-12-20T04:55:18;0.70;;;0.70;;
1613;SDS011;800;48.824;9.346;2023-12-20T04:57:44;0.67;;;0.67;;
1613;SDS011;800;48.824;9.346;2023-12-20T05:00:10;0.90;;;0.80;;
1613;SDS011;800;48.824;9.346;2023-12-20T05:02:36;0.63;;;0.60;;
1613;SDS011;800;48.824;9.346;2023-12-20T05:05:02;1.17;;;0.70;;
1613;SDS011;800;48.824;9.346;2023-12-20T05:07:27;0.60;;;0.50;;
1613;SDS011;800;48.824;9.346;2023-12-20T05:09:53;0.50;;;0.50;;
1613;SDS011;800;48.824;9.346;2023-12-20T05:12:19;0.90;;;0.60;;
1613;SDS011;800;48.824;9.346;2023-12-20T05:14:44;0.97;;;0.97;;
1613;SDS011;800;48.824;9.346;2023-12-20T05:17:11;0.70;;;0.70;;
1613;SDS011;800;48.824;9.346;2023-12-20T05:19:36;0.50;;;0.50;;
1613;SDS011;800;48.824;9.346;2023-12-20T05:22:02;0.60;;;0.60;;
1613;SDS011;800;48.824;9.346;2023-12-20T05:24:28;0.80;;;0.60;;
1613;SDS011;800;48.824;9.346;2023-12-20T05:26:53;0.90;;;0.60;;
1613;SDS011;800;48.824;9.346;2023-12-20T05:29:19;0.90;;;0.70;;
1613;SDS011;800;48.824;9.346;2023-12-20T05:31:45;0.60;;;0.60;;
1613;SDS011;800;48.824;9.346;2023-12-20T05:34:11;1.23;;;0.90;;
1613;SDS011;800;48.824;9.346;2023-12-20T05:36:36;2.03;;;0.80;;
1613;SDS011;800;48.824;9.346;2023-12-20T05:39:02;0.93;;;0.67;;
1613;SDS011;800;48.824;9.346;2023-12-20T05:41:32;1.23;;;0.77;;
1613;SDS011;800;48.824;9.346;2023-12-20T05:43:58;0.70;;;0.70;;
1613;SDS011;800;48.824;9.346;2023-12-20T05:46:24;1.20;;;0.80;;
1613;SDS011;800;48.824;9.346;2023-12-20T05:48:50;2.13;;;0.80;;
1613;SDS011;800;48.824;9.346;2023-12-20T05:51:16;2.87;;;1.00;;
1613;SDS011;800;48.824;9.346;2023-12-20T05:53:42;2.40;;;2.20;;
1613;SDS011;800;48.824;9.346;2023-12-20T05:56:09;0.80;;;0.80;;
1613;SDS011;800;48.824;9.346;2023-12-20T05:58:34;0.80;;;0.70;;
1613;SDS011;800;48.824;9.346;2023-12-20T06:01:00;0.60;;;0.60;;
1613;SDS011;800;48.824;9.346;2023-12-20T06:03:26;5.13;;;4.10;;
1613;SDS011;800;48.824;9.346;2023-12-20T06:05:51;4.10;;;1.10;;
1613;SDS011;800;48.824;9.346;2023-12-20T06:08:17;1.23;;;1.13;;
1613;SDS011;800;48.824;9.346;2023-12-20T06:10:42;1.00;;;0.70;;
1613;SDS011;800;48.824;9.346;2023-12-20T06:13:08;0.90;;;0.73;;
1613;SDS011;800;48.824;9.346;2023-12-20T06:15:33;2.60;;;1.97;;
1613;SDS011;800;48.824;9.346;2023-12-20T06:18:00;2.27;;;1.13;;
1613;SDS011;800;48.824;9.346;2023-12-20T06:20:26;1.00;;;0.73;;
1613;SDS011;800;48.824;9.346;2023-12-20T06:22:51;0.60;;;0.60;;
1613;SDS011;800;48.824;9.346;2023-12-20T06:25:17;1.00;;;1.00;;
1613;SDS011;800;48.824;9.346;2023-12-20T06:27:42;2.30;;;0.83;;
1613;SDS011;800;48.824;9.346;2023-12-20T06:30:08;1.37;;;1.07;;
1613;SDS011;800;48.824;9.346;2023-12-20T06:32:36;1.10;;;1.00;;
1613;SDS011;800;48.824;9.346;2023-12-20T06:35:03;3.57;;;1.30;;
1613;SDS011;800;48.824;9.346;2023-12-20T06:37:30;1.20;;;1.10;;
1613;SDS011;800;48.824;9.346;2023-12-20T06:39:55;1.87;;;1.77;;
1613;SDS011;800;48.824;9.346;2023-12-20T06:42:21;1.00;;;1.00;;
1613;SDS011;800;48.824;9.346;2023-12-20T06:44:47;3.20;;;1.40;;
1613;SDS011;800;48.824;9.346;2023-12-20T06:47:13;3.33;;;1.20;;
1613;SDS011;800;48.824;9.346;2023-12-20T06:49:39;1.40;;;1.13;;
1613;SDS011;800;48.824;9.346;2023-12-20T06:52:05;1.77;;;1.17;;
1613;SDS011;800;48.824;9.346;2023-12-20T06:54:31;4.30;;;1.40;;
1613;SDS011;800;48.824;9.346;2023-12-20T06:56:56;2.60;;;1.20;;
1613;SDS011;800;48.824;9.346;2023-12-20T06:59:22;4.90;;;1.23;;
1613;SDS011;800;48.824;9.346;2023-12-20T07:01:48;3.17;;;1.63;;
1613;SDS011;800;48.824;9.346;2023-12-20T07:04:14;5.80;;;2.63;;
1613;SDS011;800;48.824;9.346;2023-12-20T07:06:41;2.37;;;1.43;;
1613;SDS011;800;48.824;9.346;2023-12-20T07:09:07;1.73;;;1.30;;
1613;SDS011;800;48.824;9.346;2023-12-20T07:11:32;4.20;;;1.20;;
1613;SDS011;800;48.824;9.346;2023-12-20T07:13:58;9.33;;;1.50;;
1613;SDS011;800;48.824;9.346;2023-12-20T07:16:23;4.87;;;1.20;;
1613;SDS011;800;48.824;9.346;2023-12-20T07:18:49;5.23;;;1.57;;
1613;SDS011;800;48.824;9.346;2023-12-20T07:21:15;2.37;;;1.30;;
1613;SDS011;800;48.824;9.346;2023-12-20T07:23:40;4.00;;;2.07;;
1613;SDS011;800;48.824;9.346;2023-12-20T07:26:06;1.70;;;1.60;;
1613;SDS011;800;48.824;9.346;2023-12-20T07:28:32;3.53;;;2.30;;
1613;SDS011;800;48.824;9.346;2023-12-20T07:30:57;2.00;;;1.90;;
1613;SDS011;800;48.824;9.346;2023-12-20T07:33:23;2.50;;;2.30;;
1613;SDS011;800;48.824;9.346;2023-12-20T07:35:48;2.97;;;2.67;;
1613;SDS011;800;48.824;9.346;2023-12-20T07:38:14;3.20;;;2.90;;
1613;SDS011;800;48.824;9.346;2023-12-20T07:40:39;3.53;;;3.23;;
1613;SDS011;800;48.824;9.346;2023-12-20T07:43:08;3.70;;;3.40;;
1613;SDS011;800;48.824;9.346;2023-12-20T07:45:33;4.80;;;4.27;;
1613;SDS011;800;48.824;9.346;2023-12-20T07:47:59;3.53;;;3.23;;
1613;SDS011;800;48.824;9.346;2023-12-20T07:50:25;4.20;;;3.53;;
1613;SDS011;800;48.824;9.346;2023-12-20T07:52:51;3.10;;;2.73;;
1613;SDS011;800;48.824;9.346;2023-12-20T07:55:16;3.70;;;3.40;;
1613;SDS011;800;48.824;9.346;2023-12-20T07:57:42;3.33;;;3.03;;
1613;SDS011;800;48.824;9.346;2023-12-20T08:00:08;3.17;;;2.87;;
1613;SDS011;800;48.824;9.346;2023-12-20T08:02:35;6.03;;;3.10;;
1613;SDS011;800;48.824;9.346;2023-12-20T08:05:00;2.43;;;2.23;;
1613;SDS011;800;48.824;9.346;2023-12-20T08:07:26;2.40;;;2.20;;
1613;SDS011;800;48.824;9.346;2023-12-20T08:09:51;2.70;;;2.50;;
1613;SDS011;800;48.824;9.346;2023-12-20T08:12:19;2.93;;;2.73;;
1613;SDS011;800;48.824;9.346;2023-12-20T08:14:45;2.73;;;2.50;;
1613;SDS011;800;48.824;9.346;2023-12-20T08:17:11;8.27;;;7.50;;
1613;SDS011;800;48.824;9.346;2023-12-20T08:19:37;2.90;;;2.70;;
1613;SDS011;800;48.824;9.346;2023-12-20T08:22:03;2.43;;;2.23;;
1613;SDS011;800;48.824;9.346;2023-12-20T08:24:29;2.87;;;2.20;;
1613;SDS011;800;48.824;9.346;2023-12-20T08:26:55;3.13;;;2.83;;
1613;SDS011;800;48.824;9.346;2023-12-20T08:29:20;2.83;;;2.60;;
1613;SDS011;800;48.824;9.346;2023-12-20T08:31:46;2.83;;;2.63;;
1613;SDS011;800;48.824;9.346;2023-12-20T08:34:11;3.20;;;2.73;;
1613;SDS011;800;48.824;9.346;2023-12-20T08:36:39;3.40;;;3.10;;
1613;SDS011;800;48.824;9.346;2023-12-20T08:39:04;4.43;;;2.73;;
1613;SDS011;800;48.824;9.346;2023-12-20T08:41:32;3.30;;;3.00;;
1613;SDS011;800;48.824;9.346;2023-12-20T08:43:57;2.70;;;2.50;;
1613;SDS011;800;48.824;9.346;2023-12-20T08:46:23;3.10;;;2.80;;
1613;SDS011;800;48.824;9.346;2023-12-20T08:48:49;2.73;;;2.53;;
1613;SDS011;800;48.824;9.346;2023-12-20T08:51:14;2.60;;;2.40;;
1613;SDS011;800;48.824;9.346;2023-12-20T08:53:40;3.93;;;2.87;;
1613;SDS011;800;48.824;9.346;2023-12-20T08:56:06;3.07;;;2.60;;
1613;SDS011;800;48.824;9.346;2023-12-20T08:58:32;3.10;;;2.87;;
1613;SDS011;800;48.824;9.346;2023-12-20T09:00:58;3.30;;;2.80;;
1613;SDS011;800;48.824;9.346;2023-12-20T09:03:24;2.50;;;2.30;;
1613;SDS011;800;48.824;9.346;2023-12-20T09:05:49;2.90;;;2.40;;
1613;SDS011;800;48.824;9.346;2023-12-20T09:08:15;4.83;;;2.50;;
1613;SDS011;800;48.824;9.346;2023-12-20T09:10:40;3.13;;;2.60;;
1613;SDS011;800;48.824;9.346;2023-12-20T09:13:06;2.67;;;2.47;;
1613;SDS011;800;48.824;9.346;2023-12-20T09:15:31;3.10;;;2.90;;
1613;SDS011;800;48.824;9.346;2023-12-20T09:17:59;5.30;;;2.70;;
1613;SDS011;800;48.824;9.346;2023-12-20T09:20:24;3.53;;;2.13;;
1613;SDS011;800;48.824;9.346;2023-12-20T09:22:50;3.33;;;2.80;;
1613;SDS011;800;48.824;9.346;2023-12-20T09:25:15;2.50;;;2.30;;
1613;SDS011;800;48.824;9.346;2023-12-20T09:27:42;3.30;;;2.70;;
1613;SDS011;800;48.824;9.346;2023-12-20T09:30:08;3.13;;;2.60;;
1613;SDS011;800;48.824;9.346;2023-12-20T09:32:34;3.17;;;2.60;;
1613;SDS011;800;48.824;9.346;2023-12-20T09:34:59;2.80;;;2.40;;
1613;SDS011;800;48.824;9.346;2023-12-20T09:37:26;2.57;;;2.37;;
1613;SDS011;800;48.824;9.346;2023-12-20T09:39:52;5.87;;;2.10;;
1613;SDS011;800;48.824;9.346;2023-12-20T09:42:20;2.00;;;1.90;;
1613;SDS011;800;48.824;9.346;2023-12-20T09:44:50;4.20;;;2.00;;
1613;SDS011;800;48.824;9.346;2023-12-20T09:47:16;1.87;;;1.77;;
1613;SDS011;800;48.824;9.346;2023-12-20T09:49:44;2.23;;;1.70;;
1613;SDS011;800;48.824;9.346;2023-12-20T09:52:10;1.90;;;1.70;;
1613;SDS011;800;48.824;9.346;2023-12-20T09:54:37;4.00;;;2.50;;
1613;SDS011;800;48.824;9.346;2023-12-20T09:57:03;2.60;;;1.60;;
1613;SDS011;800;48.824;9.346;2023-12-20T09:59:29;3.30;;;1.67;;
1613;SDS011;800;48.824;9.346;2023-12-20T10:01:55;1.80;;;1.20;;
1613;SDS011;800;48.824;9.346;2023-12-20T10:04:22;3.47;;;1.50;;
1613;SDS011;800;48.824;9.346;2023-12-20T10:06:47;3.20;;;1.40;;
1613;SDS011;800;48.824;9.346;2023-12-20T10:09:13;3.93;;;1.70;;
1613;SDS011;800;48.824;9.346;2023-12-20T10:11:39;6.07;;;1.50;;
1613;SDS011;800;48.824;9.346;2023-12-20T10:14:05;8.23;;;2.00;;
1613;SDS011;800;48.824;9.346;2023-12-20T10:16:32;4.10;;;1.50;;
1613;SDS011;800;48.824;9.346;2023-12-20T10:18:59;3.13;;;1.97;;
1613;SDS011;800;48.824;9.346;2023-12-20T10:21:29;3.23;;;1.60;;
1613;SDS011;800;48.824;9.346;2023-12-20T10:23:55;8.33;;;1.83;;
1613;SDS011;800;48.824;9.346;2023-12-20T10:26:22;3.47;;;1.63;;
1613;SDS011;800;48.824;9.346;2023-12-20T10:28:55;1.63;;;1.40;;
1613;SDS011;800;48.824;9.346;2023-12-20T10:31:28;5.60;;;1.57;;
1613;SDS011;800;48.824;9.346;2023-12-20T10:33:58;2.40;;;1.23;;
1613;SDS011;800;48.824;9.346;2023-12-20T10:36:25;5.87;;;1.60;;
1613;SDS011;800;48.824;9.346;2023-12-20T10:38:52;3.20;;;1.40;;
1613;SDS011;800;48.824;9.346;2023-12-20T10:41:21;2.80;;;1.40;;
1613;SDS011;800;48.824;9.346;2023-12-20T10:43:53;4.93;;;1.97;;
1613;SDS011;800;48.824;9.346;2023-12-20T10:46:23;4.77;;;1.60;;
1613;SDS011;800;48.824;9.346;2023-12-20T10:48:51;3.17;;;1.30;;
1613;SDS011;800;48.824;9.346;2023-12-20T10:51:19;4.53;;;1.47;;
1613;SDS011;800;48.824;9.346;2023-12-20T10:53:49;2.50;;;1.37;;
1613;SDS011;800;48.824;9.346;2023-12-20T10:56:16;1.80;;;1.10;;
1613;SDS011;800;48.824;9.346;2023-12-20T10:58:46;5.53;;;1.70;;
1613;SDS011;800;48.824;9.346;2023-12-20T11:01:13;1.77;;;1.40;;
1613;SDS011;800;48.824;9.346;2023-12-20T11:03:42;2.87;;;1.30;;
1613;SDS011;800;48.824;9.346;2023-12-20T11:11:37;2.60;;;1.40;;
1613;SDS011;800;48.824;9.346;2023-12-20T11:14:27;4.00;;;1.77;;
1613;SDS011;800;48.824;9.346;2023-12-20T11:17:11;4.77;;;1.37;;
1613;SDS011;800;48.824;9.346;2023-12-20T11:22:23;3.80;;;1.20;;
1613;SDS011;800;48.824;9.346;2023-12-20T11:24:50;3.97;;;1.63;;
1613;SDS011;800;48.824;9.346;2023-12-20T11:27:16;6.07;;;1.33;;
1613;SDS011;800;48.824;9.346;2023-12-20T11:29:51;4.50;;;1.40;;
1613;SDS011;800;48.824;9.346;2023-12-20T11:34:57;10.60;;;3.00;;
1613;SDS011;800;48.824;9.346;2023-12-20T11:37:31;7.87;;;1.70;;
1613;SDS011;800;48.824;9.346;2023-12-20T11:40:21;9.73;;;2.30;;
1613;SDS011;800;48.824;9.346;2023-12-20T11:42:48;3.40;;;1.50;;
1613;SDS011;800;48.824;9.346;2023-12-20T11:45:16;3.60;;;1.53;;
1613;SDS011;800;48.824;9.346;2023-12-20T11:47:48;3.17;;;1.40;;
1613;SDS011;800;48.824;9.346;2023-12-20T11:50:21;3.67;;;1.30;;
1613;SDS011;800;48.824;9.346;2023-12-20T11:52:48;6.93;;;1.80;;
1613;SDS011;800;48.824;9.346;2023-12-20T11:55:14;4.53;;;1.47;;
1613;SDS011;800;48.824;9.346;2023-12-20T11:57:40;2.77;;;1.43;;
1613;SDS011;800;48.824;9.346;2023-12-20T12:00:05;3.70;;;1.57;;
1613;SDS011;800;48.824;9.346;2023-12-20T12:02:32;4.97;;;1.43;;
1613;SDS011;800;48.824;9.346;2023-12-20T12:04:59;4.13;;;1.50;;
1613;SDS011;800;48.824;9.346;2023-12-20T12:07:25;7.77;;;1.63;;
1613;SDS011;800;48.824;9.346;2023-12-20T12:09:51;5.17;;;1.70;;
1613;SDS011;800;48.824;9.346;2023-12-20T12:12:17;3.83;;;1.40;;
1613;SDS011;800;48.824;9.346;2023-12-20T12:14:44;2.20;;;1.30;;
1613;SDS011;800;48.824;9.346;2023-12-20T12:17:10;2.83;;;1.70;;
1613;SDS011;800;48.824;9.346;2023-12-20T12:19:42;3.23;;;1.93;;
1613;SDS011;800;48.824;9.346;2023-12-20T12:22:09;5.37;;;1.60;;
1613;SDS011;800;48.824;9.346;2023-12-20T12:24:40;6.10;;;1.70;;
1613;SDS011;800;48.824;9.346;2023-12-20T12:27:06;4.53;;;1.40;;
1613;SDS011;800;48.824;9.346;2023-12-20T12:29:32;3.20;;;1.50;;
1613;SDS011;800;48.824;9.346;2023-12-20T12:31:59;4.17;;;1.63;;
1613;SDS011;800;48.824;9.346;2023-12-20T12:34:27;2.90;;;1.63;;
1613;SDS011;800;48.824;9.346;2023-12-20T12:36:53;2.30;;;1.50;;
1613;SDS011;800;48.824;9.346;2023-12-20T12:39:18;5.83;;;1.50;;
1613;SDS011;800;48.824;9.346;2023-12-20T12:41:44;4.17;;;1.70;;
1613;SDS011;800;48.824;9.346;2023-12-20T12:44:10;2.90;;;1.70;;
1613;SDS011;800;48.824;9.346;2023-12-20T12:46:35;5.93;;;1.77;;
1613;SDS011;800;48.824;9.346;2023-12-20T12:49:01;4.87;;;1.73;;
1613;SDS011;800;48.824;9.346;2023-12-20T12:51:27;4.73;;;1.70;;
1613;SDS011;800;48.824;9.346;2023-12-20T12:53:52;5.33;;;1.50;;
1613;SDS011;800;48.824;9.346;2023-12-20T12:56:18;6.07;;;1.83;;
1613;SDS011;800;48.824;9.346;2023-12-20T12:58:44;2.27;;;1.53;;
1613;SDS011;800;48.824;9.346;2023-12-20T13:01:10;7.70;;;1.80;;
1613;SDS011;800;48.824;9.346;2023-12-20T13:03:36;4.63;;;1.97;;
1613;SDS011;800;48.824;9.346;2023-12-20T13:06:01;4.63;;;1.63;;
1613;SDS011;800;48.824;9.346;2023-12-20T13:08:28;6.40;;;2.20;;
1613;SDS011;800;48.824;9.346;2023-12-20T13:10:54;3.20;;;1.40;;
1613;SDS011;800;48.824;9.346;2023-12-20T13:13:20;5.40;;;1.43;;
1613;SDS011;800;48.824;9.346;2023-12-20T13:15:46;6.77;;;1.93;;
1613;SDS011;800;48.824;9.346;2023-12-20T13:18:16;4.50;;;1.90;;
1613;SDS011;800;48.824;9.346;2023-12-20T13:20:43;4.00;;;1.77;;
1613;SDS011;800;48.824;9.346;2023-12-20T13:23:09;3.13;;;1.60;;
1613;SDS011;800;48.824;9.346;2023-12-20T13:25:34;4.10;;;2.10;;
1613;SDS011;800;48.824;9.346;2023-12-20T13:28:00;7.03;;;1.83;;
1613;SDS011;800;48.824;9.346;2023-12-20T13:30:26;3.60;;;1.83;;
1613;SDS011;800;48.824;9.346;2023-12-20T13:32:51;3.90;;;1.90;;
1613;SDS011;800;48.824;9.346;2023-12-20T13:35:17;6.10;;;1.87;;
1613;SDS011;800;48.824;9.346;2023-12-20T13:37:42;3.83;;;1.77;;
1613;SDS011;800;48.824;9.346;2023-12-20T13:40:09;2.43;;;1.50;;
1613;SDS011;800;48.824;9.346;2023-12-20T13:42:35;4.87;;;1.33;;
1613;SDS011;800;48.824;9.346;2023-12-20T13:45:01;4.97;;;1.23;;
1613;SDS011;800;48.824;9.346;2023-12-20T13:47:26;3.53;;;1.90;;
1613;SDS011;800;48.824;9.346;2023-12-20T13:49:52;5.13;;;1.50;;
1613;SDS011;800;48.824;9.346;2023-12-20T13:52:17;4.47;;;1.80;;
1613;SDS011;800;48.824;9.346;2023-12-20T13:54:43;2.63;;;1.20;;
1613;SDS011;800;48.824;9.346;2023-12-20T13:57:09;7.93;;;1.70;;
1613;SDS011;800;48.824;9.346;2023-12-20T13:59:34;7.60;;;1.60;;
1613;SDS011;800;48.824;9.346;2023-12-20T14:02:01;5.90;;;2.10;;
1613;SDS011;800;48.824;9.346;2023-12-20T14:04:28;4.43;;;2.00;;
1613;SDS011;800;48.824;9.346;2023-12-20T14:06:54;2.07;;;1.50;;
1613;SDS011;800;48.824;9.346;2023-12-20T14:09:19;6.13;;;1.77;;
1613;SDS011;800;48.824;9.346;2023-12-20T14:11:45;3.77;;;1.70;;
1613;SDS011;800;48.824;9.346;2023-12-20T14:14:11;5.93;;;1.83;;
1613;SDS011;800;48.824;9.346;2023-12-20T14:16:37;3.50;;;1.63;;
1613;SDS011;800;48.824;9.346;2023-12-20T14:19:03;2.40;;;1.30;;
1613;SDS011;800;48.824;9.346;2023-12-20T14:21:29;5.10;;;1.67;;
1613;SDS011;800;48.824;9.346;2023-12-20T14:23:54;1.63;;;1.20;;
1613;SDS011;800;48.824;9.346;2023-12-20T14:26:20;4.00;;;1.30;;
1613;SDS011;800;48.824;9.346;2023-12-20T14:28:45;8.53;;;1.60;;
1613;SDS011;800;48.824;9.346;2023-12-20T14:31:11;2.80;;;1.70;;
1613;SDS011;800;48.824;9.346;2023-12-20T14:33:36;3.80;;;1.90;;
1613;SDS011;800;48.824;9.346;2023-12-20T14:36:04;4.90;;;1.70;;
1613;SDS011;800;48.824;9.346;2023-12-20T14:38:31;3.70;;;1.53;;
1613;SDS011;800;48.824;9.346;2023-12-20T14:40:56;5.23;;;1.37;;
1613;SDS011;800;48.824;9.346;2023-12-20T14:43:22;3.63;;;1.50;;
1613;SDS011;800;48.824;9.346;2023-12-20T14:45:48;2.67;;;1.40;;
1613;SDS011;800;48.824;9.346;2023-12-20T14:48:15;3.27;;;2.00;;
1613;SDS011;800;48.824;9.346;2023-12-20T14:50:41;3.83;;;1.70;;
1613;SDS011;800;48.824;9.346;2023-12-20T14:53:07;4.67;;;1.70;;
1613;SDS011;800;48.824;9.346;2023-12-20T14:55:33;2.07;;;1.40;;
1613;SDS011;800;48.824;9.346;2023-12-20T14:57:59;2.60;;;1.33;;
1613;SDS011;800;48.824;9.346;2023-12-20T15:00:24;3.50;;;1.80;;
1613;SDS011;800;48.824;9.346;2023-12-20T15:02:50;2.07;;;1.30;;
1613;SDS011;800;48.824;9.346;2023-12-20T15:05:16;1.93;;;1.40;;
1613;SDS011;800;48.824;9.346;2023-12-20T15:07:42;2.00;;;1.33;;
1613;SDS011;800;48.824;9.346;2023-12-20T15:10:08;6.77;;;2.07;;
1613;SDS011;800;48.824;9.346;2023-12-20T15:12:34;6.37;;;1.63;;
1613;SDS011;800;48.824;9.346;2023-12-20T15:15:00;3.30;;;1.67;;
1613;SDS011;800;48.824;9.346;2023-12-20T15:17:25;4.07;;;1.93;;
1613;SDS011;800;48.824;9.346;2023-12-20T15:19:51;2.60;;;1.60;;
1613;SDS011;800;48.824;9.346;2023-12-20T15:22:17;6.67;;;1.70;;
1613;SDS011;800;48.824;9.346;2023-12-20T15:24:43;6.90;;;2.10;;
1613;SDS011;800;48.824;9.346;2023-12-20T15:27:11;4.53;;;1.70;;
1613;SDS011;800;48.824;9.346;2023-12-20T15:29:36;3.40;;;1.87;;
1613;SDS011;800;48.824;9.346;2023-12-20T15:32:02;2.83;;;1.63;;
1613;SDS011;800;48.824;9.346;2023-12-20T15:34:31;2.80;;;1.40;;
1613;SDS011;800;48.824;9.346;2023-12-20T15:36:57;7.03;;;1.57;;